Latest Coastal Weather Observations for Cape Flattery

IDQ60701

Issued at 1:31 pm EST Saturday 4 July 2015 (issued every 10 minutes, with the page automatically refreshed every 10 minutes)

About coastal observations | Map of coastal stations | Coastal observations for QLD | Marine services | Other Formats
Station Details ID: 031213 Name: CAPE FLATTERY Lat: -14.97 Lon: 145.31 Height: 18.5 m
Data from the previous 72 hours. | See also: Recent months at Cape Flattery
Date/Time
EST
Temp

°C
Wind Pressure Rain
since 9am
mm
Weather Cloud Vis
km
Sea
Height
m
Swell
Dir
 
Speed
knots
Gust
knots
hPa Trend Height
m
Period
s
Dir
04/01:30pm 24.4 SSE 22 29 1015.3 - 0.0 - - - - - - -
04/01:00pm 24.9 SSE 22 29 1015.7 - 0.0 - - - - - - -
04/12:30pm 24.5 SSE 21 26 1016.0 - 0.0 - - - - - - -
04/12:00pm 25.3 S 18 25 1016.7 - 0.0 - - - - - - -
04/11:30am 24.7 SSE 17 22 1017.2 - 0.0 - - - - - - -
04/11:00am 24.8 SSE 17 22 1017.6 - 0.0 - - - - - - -
04/10:30am 25.4 SSE 15 20 1017.6 - 0.0 - - - - - - -
04/10:00am 25.0 SE 15 20 1017.6 - 0.0 - - - - - - -
04/09:30am 24.8 SE 15 19 1017.6 - 0.0 - - - - - - -
04/09:00am 24.3 SE 15 19 1017.5 - 0.0 - - - - - - -
04/08:30am 23.6 SSE 15 21 1017.3 - 0.0 - - - - - - -
04/08:00am 22.9 SSE 15 20 1016.9 - 0.0 - - - - - - -
04/07:30am 22.2 SSE 15 19 1016.4 - 0.0 - - - - - - -
04/07:00am 21.8 SSE 15 20 1016.1 - 0.0 - - - - - - -
04/06:30am 21.8 SE 16 23 1015.9 - 0.0 - - - - - - -
04/06:00am 22.1 SE 16 22 1015.8 - 0.0 - - - - - - -
04/05:30am 22.1 SE 16 23 1015.6 - 0.0 - - - - - - -
04/05:00am 22.5 SE 16 22 1015.6 - 0.0 - - - - - - -
04/04:30am 22.6 SE 15 20 1015.5 - 0.0 - - - - - - -
04/04:00am 22.7 SE 16 21 1015.4 - 0.0 - - - - - - -
04/03:30am 22.6 SE 18 23 1015.4 - 0.0 - - - - - - -
04/03:00am 22.6 SE 16 23 1015.5 - 0.0 - - - - - - -
04/02:30am 22.6 SE 17 23 1015.6 - 0.0 - - - - - - -
04/02:00am 22.7 SE 16 22 1015.8 - 0.0 - - - - - - -
04/01:30am 22.8 SE 15 22 1016.1 - 0.0 - - - - - - -
04/01:00am 22.7 SE 14 20 1016.3 - 0.0 - - - - - - -
04/12:30am 22.5 SSE 14 19 1016.4 - 0.0 - - - - - - -
04/12:00am 22.7 SSE 15 21 1016.6 - 0.0 - - - - - - -
 
Date/Time
EST
Temp

°C
Wind Pressure Rain
since 9am
mm
Weather Cloud Vis
km
Sea
Height
m
Swell
Dir
 
Speed
knots
Gust
knots
hPa Trend Height
m
Period
s
Dir
03/11:30pm 22.7 SSE 16 23 1016.7 - 0.0 - - - - - - -
03/11:00pm 23.0 SSE 16 23 1017.0 - 0.0 - - - - - - -
03/10:30pm 23.3 SE 17 23 1017.1 - 0.0 - - - - - - -
03/10:00pm 23.2 SE 18 22 1017.3 - 0.0 - - - - - - -
03/09:30pm 23.0 SE 17 25 1017.2 - 0.0 - - - - - - -
03/09:00pm 23.0 SE 17 23 1016.9 - 0.0 - - - - - - -
03/08:30pm 23.0 SE 17 23 1016.6 - 0.0 - - - - - - -
03/08:00pm 23.0 SSE 18 22 1016.4 - 0.0 - - - - - - -
03/07:30pm 22.9 SSE 17 23 1016.0 - 0.0 - - - - - - -
03/07:00pm 23.0 SE 16 23 1015.8 - 0.0 - - - - - - -
03/06:30pm 23.1 SSE 17 23 1015.6 - 0.0 - - - - - - -
03/06:00pm 23.2 SSE 17 23 1015.4 - 0.0 - - - - - - -
03/05:30pm 23.6 SSE 18 23 1015.2 - 0.0 - - - - - - -
03/05:00pm 24.3 SSE 16 22 1014.8 - 0.0 - - - - - - -
03/04:30pm 24.7 SE 18 25 1014.6 - 0.0 - - - - - - -
03/04:00pm 25.2 SSE 18 23 1014.4 - 0.0 - - - - - - -
03/03:30pm 25.4 SE 19 25 1014.2 - 0.0 - - - - - - -
03/03:00pm 26.0 SE 18 23 1014.3 - 0.0 - - - - - - -
03/02:30pm 25.8 SE 18 24 1014.7 - 0.0 - - - - - - -
03/02:00pm 26.0 SE 17 23 1015.0 - 0.0 - - - - - - -
03/01:30pm 26.7 SE 16 21 1015.3 - 0.0 - - - - - - -
03/01:00pm 26.5 SE 16 21 1015.6 - 0.0 - - - - - - -
03/12:30pm 26.5 SE 17 22 1016.0 - 0.0 - - - - - - -
03/12:00pm 26.5 SSE 15 19 1016.3 - 0.0 - - - - - - -
03/11:30am 26.2 SE 17 23 1016.7 - 0.0 - - - - - - -
03/11:00am 25.5 SE 15 19 1017.0 - 0.0 - - - - - - -
03/10:30am 25.8 SE 18 23 1017.0 - 0.0 - - - - - - -
03/10:00am 25.8 SE 15 21 1017.2 - 0.0 - - - - - - -
03/09:30am 25.3 SE 16 21 1017.2 - 0.0 - - - - - - -
03/09:00am 25.1 SE 14 19 1017.2 - 0.2 - - - - - - -
03/08:30am 24.4 SE 12 18 1017.0 - 0.2 - - - - - - -
03/08:00am 23.1 SSE 11 16 1016.8 - 0.2 - - - - - - -
03/07:30am 22.4 SSE 12 16 1016.6 - 0.2 - - - - - - -
03/07:00am 21.6 SSE 10 15 1016.4 - 0.2 - - - - - - -
03/06:30am 21.6 SSE 11 15 1016.1 - 0.2 - - - - - - -
03/06:00am 22.1 SSE 12 16 1015.9 - 0.2 - - - - - - -
03/05:30am 22.8 SE 15 22 1015.6 - 0.2 - - - - - - -
03/05:00am 23.2 SE 16 21 1015.4 - 0.2 - - - - - - -
03/04:30am 23.1 SE 17 24 1015.4 - 0.2 - - - - - - -
03/04:00am 23.0 SE 15 20 1015.4 - 0.2 - - - - - - -
03/03:30am 23.2 SE 16 20 1015.6 - 0.2 - - - - - - -
03/03:00am 23.0 SE 14 18 1015.9 - 0.2 - - - - - - -
03/02:30am 23.0 SE 16 23 1016.2 - 0.2 - - - - - - -
03/02:00am 23.0 SE 14 20 1016.4 - 0.2 - - - - - - -
03/01:30am 23.5 SE 16 21 1016.6 - 0.2 - - - - - - -
03/01:00am 23.1 SE 13 17 1016.8 - 0.2 - - - - - - -
03/12:30am 23.1 SE 14 21 1017.0 - 0.2 - - - - - - -
03/12:00am 23.1 SE 14 20 1017.2 - 0.2 - - - - - - -
 
Date/Time
EST
Temp

°C
Wind Pressure Rain
since 9am
mm
Weather Cloud Vis
km
Sea
Height
m
Swell
Dir
 
Speed
knots
Gust
knots
hPa Trend Height
m
Period
s
Dir
02/11:43pm 22.9 SE 16 26 1017.3 - 0.2 - - - - - - -
02/11:30pm 23.1 SE 17 22 1017.3 - 0.2 - - - - - - -
02/11:00pm 23.0 SE 14 20 1017.6 - 0.2 - - - - - - -
02/10:30pm 22.8 SE 11 16 1017.9 - 0.2 - - - - - - -
02/10:00pm 23.6 SE 15 23 1018.0 - 0.2 - - - - - - -
02/09:30pm 23.5 SE 15 21 1017.9 - 0.2 - - - - - - -
02/09:00pm 23.4 SE 13 18 1017.8 - 0.2 - - - - - - -
02/08:30pm 23.6 SE 16 21 1017.7 - 0.2 - - - - - - -
02/08:00pm 23.6 SE 14 19 1017.6 - 0.2 - - - - - - -
02/07:30pm 23.6 SE 16 22 1017.3 - 0.2 - - - - - - -
02/07:00pm 23.4 SE 15 20 1016.9 - 0.2 - - - - - - -
02/06:30pm 23.6 SE 17 24 1016.7 - 0.2 - - - - - - -
02/06:00pm 23.6 SE 15 20 1016.6 - 0.2 - - - - - - -
02/05:30pm 24.0 SE 18 22 1016.4 - 0.2 - - - - - - -
02/05:00pm 24.5 SE 18 23 1016.2 - 0.2 - - - - - - -
02/04:30pm 24.5 SSE 18 23 1016.1 - 0.2 - - - - - - -
02/04:00pm 24.7 SSE 19 25 1016.1 - 0.2 - - - - - - -
02/03:30pm 24.8 SSE 19 25 1016.2 - 0.2 - - - - - - -
02/03:00pm 25.0 SSE 20 25 1016.2 - 0.2 - - - - - - -
02/02:30pm 25.1 SSE 21 27 1016.5 - 0.2 - - - - - - -
02/02:00pm 25.3 SSE 20 25 1016.7 - 0.2 - - - - - - -
02/01:30pm 25.5 SSE 19 25 1017.1 - 0.2 - - - - - - -
02/01:00pm 25.4 SSE 20 25 1017.6 - 0.2 - - - - - - -
02/12:30pm 25.8 SSE 19 25 1017.9 - 0.2 - - - - - - -
02/12:00pm 26.5 SE 19 25 1018.4 - 0.2 - - - - - - -
02/11:30am 26.4 SE 19 25 1018.6 - 0.2 - - - - - - -
02/11:00am 25.9 SE 19 29 1018.9 - 0.2 - - - - - - -
02/10:56am 26.1 SE 19 29 1019.0 - 0.2 - - - - - - -
02/10:30am 25.8 SE 19 26 1019.1 - 0.2 - - - - - - -
02/10:00am 25.4 SE 19 26 1019.4 - 0.2 - - - - - - -
02/09:30am 25.4 SE 18 25 1019.5 - 0.2 - - - - - - -
02/09:00am 23.9 SSE 15 21 1019.5 - 0.4 - - - - - - -
02/08:30am 24.2 SSE 17 23 1019.1 - 0.4 - - - - - - -
02/08:00am 23.5 SSE 18 24 1018.6 - 0.4 - - - - - - -
02/07:30am 22.9 SSE 19 24 1018.2 - 0.4 - - - - - - -
02/07:00am 22.8 SSE 17 23 1017.9 - 0.4 - - - - - - -
02/06:30am 22.7 SSE 19 24 1017.6 - 0.4 - - - - - - -
02/06:00am 22.4 SSE 17 23 1017.4 - 0.4 - - - - - - -
02/05:30am 22.5 SSE 19 25 1017.2 - 0.4 - - - - - - -
02/05:00am 22.4 SSE 18 24 1017.0 - 0.4 - - - - - - -
02/04:30am 22.4 SSE 17 24 1016.9 - 0.4 - - - - - - -
02/04:10am 22.3 SSE 17 27 1016.8 - 0.4 - - - - - - -
02/04:00am 22.5 SSE 20 26 1016.8 - 0.4 - - - - - - -
02/03:30am 22.1 SSE 16 22 1016.9 - 0.4 - - - - - - -
02/03:00am 21.6 SSE 15 19 1017.1 - 0.4 - - - - - - -
02/02:30am 22.1 SSE 18 26 1017.3 - 0.4 - - - - - - -
02/02:00am 22.3 SSE 16 22 1017.6 - 0.4 - - - - - - -
02/01:30am 22.1 SSE 19 25 1018.1 - 0.4 - - - - - - -
02/01:00am 22.4 SSE 19 26 1018.2 - 0.4 - - - - - - -
02/12:30am 22.5 SSE 20 27 1018.3 - 0.4 - - - - - - -
02/12:00am 22.4 SSE 18 24 1018.7 - 0.4 - - - - - - -
 
Date/Time
EST
Temp

°C
Wind Pressure Rain
since 9am
mm
Weather Cloud Vis
km
Sea
Height
m
Swell
Dir
 
Speed
knots
Gust
knots
hPa Trend Height
m
Period
s
Dir
01/11:30pm 22.7 SSE 19 25 1018.9 - 0.4 - - - - - - -
01/11:00pm 22.5 SSE 19 24 1019.4 - 0.4 - - - - - - -
01/10:30pm 22.8 SSE 19 25 1019.6 - 0.4 - - - - - - -
01/10:00pm 22.7 SSE 19 24 1019.6 - 0.4 - - - - - - -
01/09:30pm 22.8 SSE 20 25 1019.6 - 0.4 - - - - - - -
01/09:00pm 22.9 SSE 20 26 1019.3 - 0.4 - - - - - - -
01/08:30pm 22.9 SSE 20 26 1019.1 - 0.4 - - - - - - -
01/08:00pm 22.8 SSE 19 28 1018.8 - 0.4 - - - - - - -
01/07:30pm 22.8 SSE 21 27 1018.6 - 0.4 - - - - - - -
01/07:00pm 22.8 SSE 20 27 1018.3 - 0.4 - - - - - - -
01/06:30pm 22.8 SSE 19 26 1017.9 - 0.4 - - - - - - -
01/06:00pm 22.9 SSE 19 26 1017.7 - 0.4 - - - - - - -
01/05:30pm 23.1 SSE 19 26 1017.5 - 0.4 - - - - - - -
01/05:00pm 23.0 SSE 19 26 1017.2 - 0.4 - - - - - - -
01/04:30pm 23.2 SSE 20 28 1016.9 - 0.4 - - - - - - -
01/04:00pm 23.1 SSE 21 28 1016.6 - 0.4 - - - - - - -
01/03:34pm 22.9 SSE 19 29 1016.5 - 0.4 - - - - - - -
01/03:30pm 22.7 SSE 21 29 1016.5 - 0.4 - - - - - - -
01/03:00pm 22.4 SSE 20 25 1016.7 - 0.2 - - - - - - -
01/02:30pm 24.0 SSE 20 26 1016.9 - 0.0 - - - - - - -
01/02:00pm 24.2 SSE 22 28 1017.1 - 0.0 - - - - - - -

Other Formats:

Comma delimited format used in spreadsheet applications
http://www.bom.gov.au/fwo/IDQ60701/IDQ60701.94188.axf

JavaScript Object Notation format (JSON) in row-major order
http://www.bom.gov.au/fwo/IDQ60701/IDQ60701.94188.json